createdAt,value
2023-09-24T00:01:28.887Z,2.00
2023-09-24T00:03:56.523Z,1.98
2023-09-24T00:06:26.708Z,1.92
2023-09-24T00:08:56.525Z,1.90
2023-09-24T00:11:26.935Z,1.92
2023-09-24T00:13:56.722Z,1.75
2023-09-24T00:16:26.446Z,1.70
2023-09-24T00:18:53.328Z,1.80
2023-09-24T00:21:20.425Z,2.00
2023-09-24T00:23:47.722Z,1.85
2023-09-24T00:26:14.680Z,2.75
2023-09-24T00:28:42.783Z,2.00
2023-09-24T00:31:09.711Z,2.95
2023-09-24T00:33:36.477Z,1.88
2023-09-24T00:36:03.300Z,1.92
2023-09-24T00:38:30.105Z,1.90
2023-09-24T00:40:56.961Z,2.25
2023-09-24T00:43:28.733Z,2.35
2023-09-24T00:45:58.585Z,2.30
2023-09-24T00:48:29.660Z,2.30
2023-09-24T00:51:04.299Z,2.45
2023-09-24T00:53:34.366Z,2.22
2023-09-24T00:56:01.854Z,1.80
2023-09-24T00:58:29.653Z,1.65
2023-09-24T01:01:00.767Z,1.92
2023-09-24T01:03:28.742Z,1.85
2023-09-24T01:05:56.537Z,2.03
2023-09-24T01:08:25.911Z,2.15
2023-09-24T01:10:53.754Z,1.85
2023-09-24T01:13:20.764Z,2.58
2023-09-24T01:15:56.909Z,1.65
2023-09-24T01:18:23.885Z,2.10
2023-09-24T01:20:51.003Z,1.83
2023-09-24T01:23:17.960Z,1.58
2023-09-24T01:25:46.939Z,1.88
2023-09-24T01:28:15.336Z,2.00
2023-09-24T01:30:42.402Z,2.13
2023-09-24T01:33:10.251Z,2.35
2023-09-24T01:35:37.918Z,1.85
2023-09-24T01:38:07.812Z,1.90
2023-09-24T01:40:38.489Z,2.05
2023-09-24T01:43:07.340Z,1.73
2023-09-24T01:45:35.253Z,1.85
2023-09-24T01:48:05.602Z,2.38
2023-09-24T01:50:38.364Z,2.35
2023-09-24T01:53:06.400Z,2.35
2023-09-24T01:55:35.066Z,1.95
2023-09-24T01:58:03.474Z,1.92
2023-09-24T02:00:30.366Z,1.92
2023-09-24T02:03:00.895Z,2.20
2023-09-24T02:05:35.622Z,1.90
2023-09-24T02:08:07.333Z,2.13
2023-09-24T02:13:04.602Z,2.00
2023-09-24T02:15:35.166Z,1.98
2023-09-24T02:18:02.489Z,1.73
2023-09-24T02:20:32.280Z,2.00
2023-09-24T02:23:01.835Z,1.95
2023-09-24T02:25:37.814Z,2.45
2023-09-24T02:28:07.582Z,2.28
2023-09-24T02:30:36.239Z,2.53
2023-09-24T02:33:05.293Z,1.90
2023-09-24T02:35:34.916Z,2.45
2023-09-24T02:38:02.000Z,2.38
2023-09-24T02:40:29.154Z,2.10
2023-09-24T02:42:58.709Z,2.00
2023-09-24T02:45:29.061Z,2.42
2023-09-24T02:47:56.484Z,2.15
2023-09-24T02:50:31.005Z,2.53
2023-09-24T02:53:00.392Z,1.90
2023-09-24T02:55:29.274Z,2.05
2023-09-24T02:57:56.349Z,2.53
2023-09-24T03:00:42.933Z,2.15
2023-09-24T03:03:17.181Z,2.22
2023-09-24T03:05:47.517Z,1.80
2023-09-24T03:08:17.113Z,2.40
2023-09-24T03:10:44.366Z,2.20
2023-09-24T03:13:11.336Z,2.33
2023-09-24T03:15:41.550Z,2.42
2023-09-24T03:18:08.550Z,2.10
2023-09-24T03:20:35.533Z,2.22
2023-09-24T03:23:04.673Z,2.80
2023-09-24T03:25:35.755Z,2.10
2023-09-24T03:28:05.221Z,2.00
2023-09-24T03:30:32.470Z,2.40
2023-09-24T03:33:00.585Z,2.45
2023-09-24T03:35:28.678Z,2.20
2023-09-24T03:37:56.739Z,2.15
2023-09-24T03:40:28.513Z,2.25
2023-09-24T03:45:26.894Z,2.25
2023-09-24T03:47:54.605Z,2.28
2023-09-24T03:50:21.635Z,2.42
2023-09-24T03:52:52.799Z,2.33
2023-09-24T03:55:22.813Z,2.63
2023-09-24T03:57:52.980Z,2.22
2023-09-24T04:00:20.950Z,2.25
2023-09-24T04:02:50.786Z,2.38
2023-09-24T04:05:23.061Z,2.88
2023-09-24T04:07:52.582Z,2.28
2023-09-24T04:10:20.700Z,2.35
2023-09-24T04:12:51.204Z,1.90
2023-09-24T04:15:19.817Z,2.17
2023-09-24T04:17:49.754Z,2.28
2023-09-24T04:20:19.133Z,2.42
2023-09-24T04:22:46.323Z,2.70
2023-09-24T04:25:25.430Z,2.60
2023-09-24T04:27:52.311Z,2.28
2023-09-24T04:30:20.567Z,2.25
2023-09-24T04:32:53.229Z,2.40
2023-09-24T04:35:21.119Z,2.20
2023-09-24T04:37:52.297Z,2.65
2023-09-24T04:40:19.601Z,2.33
2023-09-24T04:42:47.176Z,2.70
2023-09-24T04:45:15.803Z,2.58
2023-09-24T04:47:44.030Z,2.00
2023-09-24T04:50:12.608Z,2.53
2023-09-24T04:52:40.124Z,3.47
2023-09-24T04:55:07.700Z,2.47
2023-09-24T04:57:34.472Z,2.78
2023-09-24T05:00:02.730Z,2.42
2023-09-24T05:02:29.791Z,2.60
2023-09-24T05:04:56.864Z,2.30
2023-09-24T05:07:23.863Z,2.78
2023-09-24T05:09:53.535Z,2.50
2023-09-24T05:12:20.552Z,2.47
2023-09-24T05:14:47.563Z,2.40
2023-09-24T05:17:14.379Z,2.55
2023-09-24T05:19:43.166Z,2.28
2023-09-24T05:22:10.021Z,3.40
2023-09-24T05:24:36.864Z,2.65
2023-09-24T05:27:04.188Z,2.83
2023-09-24T05:29:31.355Z,2.85
2023-09-24T05:31:58.537Z,2.80
2023-09-24T05:34:25.500Z,2.50
2023-09-24T05:36:52.690Z,2.70
2023-09-24T05:39:21.061Z,2.88
2023-09-24T05:41:49.176Z,2.70
2023-09-24T05:44:17.654Z,3.15
2023-09-24T05:46:44.780Z,2.67
2023-09-24T05:49:11.730Z,2.80
2023-09-24T05:51:41.268Z,2.80
2023-09-24T05:54:08.890Z,2.67
2023-09-24T05:56:35.846Z,2.90
2023-09-24T05:59:02.766Z,2.58
2023-09-24T06:01:30.064Z,2.92
2023-09-24T06:03:57.201Z,3.10
2023-09-24T06:06:24.052Z,2.83
2023-09-24T06:08:54.381Z,3.25
2023-09-24T06:11:21.491Z,2.58
2023-09-24T06:13:49.084Z,2.70
2023-09-24T06:16:16.325Z,2.60
2023-09-24T06:18:43.475Z,2.95
2023-09-24T06:21:17.527Z,2.78
2023-09-24T06:23:44.315Z,3.00
2023-09-24T06:26:11.140Z,3.03
2023-09-24T06:28:38.008Z,3.00
2023-09-24T06:31:05.866Z,3.75
2023-09-24T06:33:32.794Z,3.85
2023-09-24T06:36:03.216Z,3.10
2023-09-24T06:38:30.577Z,2.60
2023-09-24T06:41:02.434Z,2.78
2023-09-24T06:45:57.063Z,2.80
2023-09-24T06:48:25.339Z,2.63
2023-09-24T06:50:55.135Z,2.50
2023-09-24T06:53:23.341Z,2.10
2023-09-24T06:55:50.085Z,2.33
2023-09-24T06:58:16.824Z,2.70
2023-09-24T07:00:43.620Z,3.05
2023-09-24T07:03:10.733Z,2.35
2023-09-24T07:05:38.623Z,3.05
2023-09-24T07:08:05.892Z,2.70
2023-09-24T07:10:32.651Z,2.92
2023-09-24T07:12:59.781Z,2.35
2023-09-24T07:15:26.628Z,2.35
2023-09-24T07:17:53.925Z,2.20
2023-09-24T07:20:21.539Z,2.70
2023-09-24T07:22:48.272Z,2.35
2023-09-24T07:25:15.446Z,2.13
2023-09-24T07:27:42.872Z,2.33
2023-09-24T07:30:10.655Z,2.78
2023-09-24T07:32:40.262Z,2.22
2023-09-24T07:35:09.333Z,1.90
2023-09-24T07:37:36.343Z,2.10
2023-09-24T07:40:03.552Z,2.15
2023-09-24T07:42:33.923Z,2.60
2023-09-24T07:45:01.007Z,2.13
2023-09-24T07:47:28.043Z,2.00
2023-09-24T07:49:54.895Z,2.47
2023-09-24T07:52:21.556Z,2.17
2023-09-24T07:54:48.814Z,2.35
2023-09-24T07:57:16.527Z,1.95
2023-09-24T07:59:43.496Z,1.77
2023-09-24T08:02:10.919Z,2.25
2023-09-24T08:04:37.697Z,1.75
2023-09-24T08:07:04.759Z,1.98
2023-09-24T08:09:31.680Z,1.80
2023-09-24T08:11:58.974Z,2.08
2023-09-24T08:14:28.149Z,1.92
2023-09-24T08:16:55.183Z,1.80
2023-09-24T08:19:22.135Z,2.03
2023-09-24T08:21:48.885Z,2.10
2023-09-24T08:24:15.717Z,2.47
2023-09-24T08:26:42.999Z,2.40
2023-09-24T08:29:10.850Z,2.70
2023-09-24T08:31:38.399Z,2.15
2023-09-24T08:34:05.438Z,1.90
2023-09-24T08:36:33.255Z,1.73
2023-09-24T08:39:02.221Z,2.58
2023-09-24T08:41:30.514Z,2.55
2023-09-24T08:43:57.965Z,2.33
2023-09-24T08:46:26.136Z,2.15
2023-09-24T08:48:54.447Z,1.95
2023-09-24T08:51:21.813Z,2.03
2023-09-24T08:53:48.761Z,1.60
2023-09-24T08:56:19.217Z,1.90
2023-09-24T08:58:45.916Z,1.60
2023-09-24T09:01:13.060Z,2.13
2023-09-24T09:03:41.616Z,1.83
2023-09-24T09:06:09.054Z,2.15
2023-09-24T09:08:52.367Z,2.47
2023-09-24T09:11:21.497Z,1.77
2023-09-24T09:13:50.265Z,1.83
2023-09-24T09:16:22.484Z,2.17
2023-09-24T09:19:11.009Z,1.73
2023-09-24T09:21:38.395Z,1.88
2023-09-24T09:24:25.531Z,1.92
2023-09-24T09:27:06.239Z,1.90
2023-09-24T09:29:37.221Z,1.85
2023-09-24T09:32:05.311Z,1.83
2023-09-24T09:34:33.119Z,2.13
2023-09-24T09:37:18.755Z,3.00
2023-09-24T09:39:48.911Z,2.15
2023-09-24T10:27:05.060Z,1.73
2023-09-24T10:29:47.153Z,1.33
2023-09-24T10:32:18.900Z,1.88
2023-09-24T10:35:10.401Z,1.55
2023-09-24T10:37:55.916Z,1.63
2023-09-24T10:40:22.848Z,1.30
2023-09-24T10:43:13.663Z,1.98
2023-09-24T10:45:40.590Z,1.95
2023-09-24T10:48:07.584Z,2.00
2023-09-24T10:50:34.874Z,1.50
2023-09-24T10:53:03.417Z,1.33
2023-09-24T10:55:30.674Z,1.25
2023-09-24T10:57:59.544Z,1.42
2023-09-24T11:00:27.627Z,1.92
2023-09-24T11:03:01.627Z,1.30
2023-09-24T11:05:30.158Z,1.23
2023-09-24T11:07:57.529Z,1.05
2023-09-24T11:10:27.358Z,1.10
2023-09-24T11:12:57.087Z,1.55
2023-09-24T11:15:25.654Z,1.30
2023-09-24T11:17:53.419Z,1.77
2023-09-24T11:20:23.467Z,1.38
2023-09-24T11:23:03.965Z,1.20
2023-09-24T11:25:31.884Z,1.33
2023-09-24T11:28:01.789Z,1.45
2023-09-24T11:30:50.299Z,1.33
2023-09-24T11:33:30.435Z,1.30
2023-09-24T11:35:59.967Z,1.13
2023-09-24T11:38:39.094Z,1.20
2023-09-24T11:41:15.506Z,1.33
2023-09-24T11:43:45.912Z,1.38
2023-09-24T11:46:30.501Z,1.25
2023-09-24T11:49:08.600Z,1.23
2023-09-24T11:51:36.976Z,1.45
2023-09-24T11:54:04.444Z,1.10
2023-09-24T11:56:34.493Z,1.30
2023-09-24T11:59:01.540Z,1.30
2023-09-24T12:01:28.902Z,1.10
2023-09-24T12:03:57.906Z,1.02
2023-09-24T12:06:25.016Z,1.30
2023-09-24T12:08:52.071Z,1.20
2023-09-24T12:11:19.198Z,1.10
2023-09-24T12:13:46.023Z,1.10
2023-09-24T12:16:13.046Z,1.50
2023-09-24T12:18:41.981Z,1.98
2023-09-24T12:21:08.994Z,1.23
2023-09-24T12:23:35.925Z,1.23
2023-09-24T12:26:02.755Z,1.10
2023-09-24T12:28:30.952Z,1.15
2023-09-24T12:31:00.348Z,1.40
2023-09-24T12:33:27.294Z,1.45
2023-09-24T12:35:58.064Z,1.30
2023-09-24T12:38:25.002Z,1.27
2023-09-24T12:40:51.875Z,1.23
2023-09-24T12:43:18.535Z,1.20
2023-09-24T12:45:45.911Z,1.10
2023-09-24T12:48:12.769Z,1.33
2023-09-24T12:50:39.631Z,1.00
2023-09-24T12:53:06.420Z,1.30
2023-09-24T12:55:33.246Z,1.25
2023-09-24T12:58:00.196Z,1.30
2023-09-24T13:00:27.308Z,1.23
2023-09-24T13:02:54.399Z,1.30
2023-09-24T13:05:24.241Z,1.20
2023-09-24T13:07:51.814Z,1.05
2023-09-24T13:10:18.849Z,1.00
2023-09-24T13:12:48.427Z,1.35
2023-09-24T13:15:15.326Z,1.17
2023-09-24T13:17:45.309Z,1.42
2023-09-24T13:20:12.290Z,1.20
2023-09-24T13:22:39.169Z,1.20
2023-09-24T13:25:06.969Z,1.27
2023-09-24T13:27:35.620Z,0.95
2023-09-24T13:30:10.474Z,1.30
2023-09-24T13:32:44.489Z,1.33
2023-09-24T13:35:11.580Z,1.30
2023-09-24T13:37:40.885Z,1.20
2023-09-24T13:40:14.006Z,1.20
2023-09-24T13:42:46.574Z,1.08
2023-09-24T13:45:14.083Z,1.48
2023-09-24T13:47:41.356Z,1.17
2023-09-24T13:50:11.489Z,1.30
2023-09-24T13:52:38.388Z,1.30
2023-09-24T13:55:06.186Z,1.02
2023-09-24T13:57:35.102Z,1.25
2023-09-24T14:00:03.195Z,1.13
2023-09-24T14:02:30.720Z,1.20
2023-09-24T14:05:00.199Z,1.50
2023-09-24T14:07:27.377Z,1.13
2023-09-24T14:10:12.971Z,1.20
2023-09-24T14:12:40.117Z,1.42
2023-09-24T14:15:07.478Z,1.33
2023-09-24T14:17:34.847Z,1.20
2023-09-24T14:20:01.667Z,1.02
2023-09-24T14:22:28.532Z,1.10
2023-09-24T14:24:55.268Z,1.00
2023-09-24T14:27:22.051Z,1.08
2023-09-24T14:29:49.224Z,1.10
2023-09-24T14:32:16.031Z,1.10
2023-09-24T14:34:43.121Z,1.20
2023-09-24T14:37:10.876Z,1.30
2023-09-24T14:39:37.624Z,1.10
2023-09-24T14:42:04.446Z,1.20
2023-09-24T14:44:37.066Z,1.30
2023-09-24T14:47:04.100Z,1.35
2023-09-24T14:49:33.964Z,1.20
2023-09-24T14:52:00.864Z,1.10
2023-09-24T14:54:27.898Z,1.23
2023-09-24T14:56:54.642Z,1.23
2023-09-24T14:59:21.405Z,1.30
2023-09-24T15:01:48.150Z,1.02
2023-09-24T15:04:16.343Z,1.42
2023-09-24T15:06:43.662Z,1.80
2023-09-24T15:09:14.341Z,1.60
2023-09-24T15:11:41.008Z,1.63
2023-09-24T15:14:07.744Z,1.23
2023-09-24T15:16:34.462Z,1.50
2023-09-24T15:19:01.308Z,2.10
2023-09-24T15:21:28.264Z,2.78
2023-09-24T15:23:55.771Z,2.33
2023-09-24T15:26:22.535Z,1.85
2023-09-24T15:28:49.271Z,1.55
2023-09-24T15:31:17.244Z,1.35
2023-09-24T15:33:44.139Z,1.20
2023-09-24T15:36:11.685Z,1.58
2023-09-24T15:38:38.543Z,1.30
2023-09-24T15:41:05.263Z,1.63
2023-09-24T15:43:31.992Z,1.40
2023-09-24T15:45:58.742Z,1.33
2023-09-24T15:48:25.711Z,1.35
2023-09-24T15:50:52.745Z,1.50
2023-09-24T15:53:20.138Z,1.30
2023-09-24T15:55:46.904Z,1.40
2023-09-24T15:58:14.532Z,1.40
2023-09-24T16:00:41.361Z,1.60
2023-09-24T16:03:08.216Z,1.50
2023-09-24T16:05:35.201Z,1.80
2023-09-24T16:08:02.014Z,1.35
2023-09-24T16:10:28.822Z,1.60
2023-09-24T16:12:56.192Z,1.40
2023-09-24T16:15:22.885Z,1.50
2023-09-24T16:17:49.817Z,1.48
2023-09-24T16:20:16.736Z,1.70
2023-09-24T16:22:46.186Z,1.63
2023-09-24T16:25:13.303Z,1.40
2023-09-24T16:27:40.111Z,1.40
2023-09-24T16:30:07.795Z,1.48
2023-09-24T16:32:34.618Z,1.70
2023-09-24T16:35:01.468Z,1.92
2023-09-24T16:37:29.119Z,1.38
2023-09-24T16:39:55.867Z,1.48
2023-09-24T16:42:23.043Z,1.70
2023-09-24T16:44:50.002Z,1.50
2023-09-24T16:47:16.779Z,1.42
2023-09-24T16:49:43.609Z,1.50
2023-09-24T16:52:10.593Z,1.65
2023-09-24T16:54:37.304Z,1.80
2023-09-24T16:57:05.018Z,1.63
2023-09-24T16:59:32.200Z,1.83
2023-09-24T17:02:02.254Z,1.55
2023-09-24T17:04:30.081Z,1.92
2023-09-24T17:06:57.396Z,2.33
2023-09-24T17:09:25.184Z,2.03
2023-09-24T17:11:53.911Z,1.67
2023-09-24T17:14:21.643Z,1.83
2023-09-24T17:16:48.424Z,1.67
2023-09-24T17:19:15.477Z,1.63
2023-09-24T17:21:42.230Z,1.80
2023-09-24T17:24:09.658Z,1.80
2023-09-24T17:26:37.310Z,1.90
2023-09-24T17:29:04.059Z,2.53
2023-09-24T17:31:30.820Z,2.20
2023-09-24T17:33:57.787Z,2.25
2023-09-24T17:36:24.597Z,1.70
2023-09-24T17:38:51.471Z,1.90
2023-09-24T17:41:18.272Z,2.15
2023-09-24T17:43:44.993Z,1.73
2023-09-24T17:46:17.356Z,2.08
2023-09-24T17:48:47.277Z,2.10
2023-09-24T17:51:16.194Z,1.90
2023-09-24T17:53:43.440Z,2.10
2023-09-24T17:56:13.350Z,1.77
2023-09-24T17:58:40.306Z,2.03
2023-09-24T18:01:12.438Z,2.20
2023-09-24T18:03:41.767Z,2.33
2023-09-24T18:06:11.990Z,2.25
2023-09-24T18:08:39.352Z,2.13
2023-09-24T18:11:06.677Z,1.92
2023-09-24T18:13:34.316Z,2.15
2023-09-24T18:16:02.666Z,2.42
2023-09-24T18:18:33.284Z,2.17
2023-09-24T18:21:01.284Z,2.00
2023-09-24T18:23:30.499Z,2.95
2023-09-24T18:25:58.191Z,2.88
2023-09-24T18:28:25.038Z,2.53
2023-09-24T18:30:51.772Z,2.85
2023-09-24T18:33:18.909Z,2.40
2023-09-24T18:35:45.687Z,2.20
2023-09-24T18:38:13.314Z,2.53
2023-09-24T18:40:41.760Z,2.83
2023-09-24T18:43:09.185Z,3.15
2023-09-24T18:45:38.000Z,5.78
2023-09-24T18:48:06.162Z,4.68
2023-09-24T18:50:36.098Z,3.17
2023-09-24T18:53:03.810Z,2.85
2023-09-24T18:55:32.123Z,13.18
2023-09-24T18:57:59.070Z,3.50
2023-09-24T19:00:26.566Z,3.17
2023-09-24T19:02:54.145Z,3.35
2023-09-24T19:05:22.402Z,3.22
2023-09-24T19:07:50.464Z,2.70
2023-09-24T19:10:18.515Z,2.78
2023-09-24T19:12:46.953Z,2.50
2023-09-24T19:15:15.678Z,2.65
2023-09-24T19:17:42.972Z,2.50
2023-09-24T19:20:10.578Z,2.35
2023-09-24T19:22:38.460Z,2.38
2023-09-24T19:25:06.840Z,2.83
2023-09-24T19:27:33.935Z,2.28
2023-09-24T19:30:00.903Z,2.50
2023-09-24T19:32:29.162Z,2.55
2023-09-24T19:34:56.266Z,2.75
2023-09-24T19:37:23.581Z,2.20
2023-09-24T19:39:50.995Z,2.28
2023-09-24T19:42:17.748Z,2.15
2023-09-24T19:44:47.778Z,2.63
2023-09-24T19:47:17.138Z,2.08
2023-09-24T19:49:45.083Z,2.20
2023-09-24T19:52:11.814Z,2.33
2023-09-24T19:54:38.805Z,2.85
2023-09-24T19:57:05.703Z,2.63
2023-09-24T19:59:34.134Z,2.45
2023-09-24T20:02:00.842Z,2.50
2023-09-24T20:04:27.630Z,2.47
2023-09-24T20:06:54.318Z,2.60
2023-09-24T20:09:23.134Z,3.42
2023-09-24T20:11:49.860Z,3.00
2023-09-24T20:14:18.192Z,3.03
2023-09-24T20:16:45.100Z,3.10
2023-09-24T20:19:13.693Z,2.90
2023-09-24T20:21:40.569Z,2.90
2023-09-24T20:24:10.778Z,2.90
2023-09-24T20:26:39.921Z,3.10
2023-09-24T20:29:08.686Z,3.53
2023-09-24T20:31:37.056Z,3.47
2023-09-24T20:34:05.342Z,3.10
2023-09-24T20:36:33.340Z,3.80
2023-09-24T20:39:07.414Z,3.45
2023-09-24T20:41:35.821Z,3.08
2023-09-24T20:44:02.902Z,3.25
2023-09-24T20:46:37.092Z,2.95
2023-09-24T20:49:04.120Z,2.80
2023-09-24T20:51:31.031Z,3.90
2023-09-24T20:53:57.918Z,2.60
2023-09-24T20:56:24.758Z,2.40
2023-09-24T20:58:51.628Z,2.30
2023-09-24T21:01:19.577Z,2.35
2023-09-24T21:03:47.056Z,2.38
2023-09-24T21:06:15.071Z,2.08
2023-09-24T21:08:42.204Z,1.92
2023-09-24T21:11:09.002Z,2.25
2023-09-24T21:13:36.289Z,1.92
2023-09-24T21:16:03.387Z,1.85
2023-09-24T21:18:30.315Z,1.88
2023-09-24T21:20:57.165Z,2.05
2023-09-24T21:23:23.852Z,1.90
2023-09-24T21:25:50.586Z,2.33
2023-09-24T21:28:17.324Z,1.80
2023-09-24T21:30:44.032Z,2.10
2023-09-24T21:33:10.955Z,2.20
2023-09-24T21:35:37.901Z,1.88
2023-09-24T21:38:04.676Z,2.20
2023-09-24T21:40:31.388Z,2.38
2023-09-24T21:42:58.356Z,1.80
2023-09-24T21:45:25.108Z,2.03
2023-09-24T21:47:51.891Z,1.92
2023-09-24T21:50:18.655Z,2.35
2023-09-24T21:52:45.326Z,1.90
2023-09-24T21:55:12.175Z,2.20
2023-09-24T21:57:38.945Z,1.88
2023-09-24T22:00:18.928Z,2.42
2023-09-24T22:02:46.450Z,2.50
2023-09-24T22:05:13.460Z,2.08
2023-09-24T22:07:40.481Z,2.00
2023-09-24T22:10:07.818Z,1.70
2023-09-24T22:12:34.604Z,2.08
2023-09-24T22:15:01.437Z,2.10
2023-09-24T22:17:28.078Z,2.22
2023-09-24T22:19:56.893Z,2.40
2023-09-24T22:22:23.726Z,2.22
2023-09-24T22:24:50.439Z,2.58
2023-09-24T22:27:17.182Z,2.75
2023-09-24T22:29:44.175Z,2.40
2023-09-24T22:32:10.892Z,2.30
2023-09-24T22:34:37.572Z,2.28
2023-09-24T22:37:04.445Z,2.33
2023-09-24T22:39:31.201Z,3.08
2023-09-24T22:41:58.017Z,2.30
2023-09-24T22:44:24.800Z,2.40
2023-09-24T22:46:53.734Z,3.13
2023-09-24T22:49:20.432Z,2.10
2023-09-24T22:51:47.216Z,2.50
2023-09-24T22:54:13.895Z,2.67
2023-09-24T22:56:40.576Z,2.65
2023-09-24T22:59:08.524Z,2.60
2023-09-24T23:01:35.233Z,2.20
2023-09-24T23:04:02.011Z,2.85
2023-09-24T23:06:28.812Z,2.88
2023-09-24T23:08:55.464Z,2.38
2023-09-24T23:11:22.142Z,3.13
2023-09-24T23:13:48.796Z,2.63
2023-09-24T23:16:15.555Z,2.80
2023-09-24T23:18:42.284Z,2.72
2023-09-24T23:21:09.004Z,2.92
2023-09-24T23:23:36.027Z,2.33
2023-09-24T23:26:05.656Z,2.42
2023-09-24T23:28:32.997Z,2.50
2023-09-24T23:30:59.689Z,2.80
2023-09-24T23:33:27.087Z,2.78
2023-09-24T23:35:53.868Z,2.53
2023-09-24T23:38:21.003Z,2.80
2023-09-24T23:40:47.735Z,2.58
2023-09-24T23:43:16.505Z,2.67
2023-09-24T23:45:43.844Z,3.50
2023-09-24T23:48:11.091Z,3.58
2023-09-24T23:50:38.402Z,3.58
2023-09-24T23:53:07.039Z,4.30
2023-09-24T23:55:35.364Z,4.80
2023-09-24T23:58:02.482Z,4.32
